Terminal Aerodrome Forecast
Issued by NWS

Home | Current Version | Previous Version | Text Only | Print | Product List | Glossary On
Versions: 1 2 3 4 5 6 7 8 9 10 11 12 13 14 15 16 17 18
000
FTUS43 KTOP 021200 AAA
TAFFOE
TAF AMD
KFOE 021215Z 0212/0312 14009KT P6SM SCT012 OVC060
     FM021600 14010KT P6SM SCT020 BKN050
     FM030800 15008KT P6SM SCT015 BKN040=

USA.gov is the U.S. government's official web portal to all federal, state and local government web resources and services.